createdAt,value
2023-03-15T00:00:09.554Z,545.00
2023-03-15T00:04:09.637Z,550.00
2023-03-15T00:56:18.918Z,539.00
2023-03-15T01:00:20.000Z,540.00
2023-03-15T01:04:20.017Z,538.00
2023-03-15T01:08:20.055Z,531.00
2023-03-15T01:12:20.131Z,535.00
2023-03-15T01:16:20.220Z,532.00
2023-03-15T01:20:20.233Z,538.00
2023-03-15T01:24:20.297Z,532.00
2023-03-15T01:28:20.388Z,531.00
2023-03-15T01:32:20.429Z,535.00
2023-03-15T01:36:20.508Z,539.00
2023-03-15T01:40:20.582Z,538.00
2023-03-15T01:44:20.705Z,530.00
2023-03-15T01:48:20.733Z,530.00
2023-03-15T01:52:20.802Z,535.00
2023-03-15T01:56:20.872Z,531.00
2023-03-15T02:00:20.947Z,533.00
2023-03-15T02:04:21.002Z,535.00
2023-03-15T02:08:21.074Z,530.00
2023-03-15T02:12:21.137Z,526.00
2023-03-15T02:16:21.269Z,528.00
2023-03-15T02:20:21.274Z,528.00
2023-03-15T02:24:21.336Z,522.00
2023-03-15T02:28:21.400Z,524.00
2023-03-15T02:32:21.525Z,524.00
2023-03-15T02:36:21.666Z,522.00
2023-03-15T02:40:21.620Z,520.00
2023-03-15T02:44:21.698Z,514.00
2023-03-15T02:48:21.796Z,521.00
2023-03-15T02:52:21.849Z,520.00
2023-03-15T02:56:21.926Z,520.00
2023-03-15T03:00:22.014Z,518.00
2023-03-15T03:04:22.114Z,517.00
2023-03-15T03:08:22.153Z,513.00
2023-03-15T03:12:22.231Z,512.00
2023-03-15T03:16:22.368Z,511.00
2023-03-15T03:20:22.418Z,513.00
2023-03-15T03:24:22.476Z,509.00
2023-03-15T03:28:22.542Z,509.00
2023-03-15T03:32:22.697Z,508.00
2023-03-15T03:36:22.682Z,505.00
2023-03-15T03:40:22.721Z,510.00
2023-03-15T03:44:22.799Z,514.00
2023-03-15T03:48:22.863Z,512.00
2023-03-15T03:52:22.981Z,506.00
2023-03-15T03:56:23.034Z,504.00
2023-03-15T04:00:23.112Z,508.00
2023-03-15T04:04:23.227Z,505.00
2023-03-15T04:08:23.297Z,505.00
2023-03-15T04:12:23.406Z,506.00
2023-03-15T04:16:23.486Z,502.00
2023-03-15T04:20:23.512Z,507.00
2023-03-15T04:24:23.623Z,511.00
2023-03-15T04:28:23.692Z,509.00
2023-03-15T04:32:23.819Z,510.00
2023-03-15T04:36:23.853Z,510.00
2023-03-15T04:40:24.010Z,503.00
2023-03-15T04:56:24.305Z,506.00
2023-03-15T05:28:24.956Z,497.00
2023-03-15T05:32:25.062Z,496.00
2023-03-15T05:36:25.100Z,497.00
2023-03-15T05:40:25.181Z,493.00
2023-03-15T05:44:25.270Z,497.00
2023-03-15T05:48:25.327Z,495.00
2023-03-15T05:52:25.390Z,493.00
2023-03-15T05:56:25.468Z,496.00
2023-03-15T06:00:25.571Z,484.00
2023-03-15T06:04:25.686Z,495.00
2023-03-15T06:08:25.705Z,495.00
2023-03-15T06:12:25.783Z,495.00
2023-03-15T06:24:26.296Z,490.00
2023-03-15T06:28:26.307Z,495.00
2023-03-15T06:32:26.394Z,504.00
2023-03-15T06:36:26.307Z,506.00
2023-03-15T06:40:26.344Z,503.00
2023-03-15T06:44:26.309Z,500.00
2023-03-15T06:48:26.334Z,502.00
2023-03-15T07:04:26.393Z,742.00
2023-03-15T07:08:26.839Z,769.00
2023-03-15T07:12:26.850Z,862.00
2023-03-15T07:20:27.369Z,1035.00
2023-03-15T07:24:27.373Z,1086.00
2023-03-15T07:28:27.356Z,1132.00
2023-03-15T07:32:27.554Z,1193.00
2023-03-15T07:48:28.071Z,1399.00
2023-03-15T09:28:29.782Z,1430.00
2023-03-15T11:04:29.432Z,1254.00
2023-03-15T11:08:29.432Z,1298.00
2023-03-15T11:12:29.241Z,1352.00
2023-03-15T11:16:29.521Z,1421.00
2023-03-15T11:36:29.966Z,1640.00
2023-03-15T13:56:40.310Z,1704.00
2023-03-15T14:00:31.999Z,1654.00
2023-03-15T14:04:31.510Z,1648.00
2023-03-15T14:08:31.480Z,1623.00
2023-03-15T14:12:31.492Z,1592.00
2023-03-15T14:16:31.556Z,1582.00
2023-03-15T14:20:31.490Z,1568.00
2023-03-15T14:24:31.489Z,1539.00
2023-03-15T14:28:31.675Z,1498.00
2023-03-15T14:32:32.129Z,1478.00
2023-03-15T14:36:32.127Z,1460.00
2023-03-15T14:40:32.335Z,1411.00
2023-03-15T14:44:33.070Z,1271.00
2023-03-15T14:48:33.038Z,1176.00
2023-03-15T14:52:33.338Z,1092.00
2023-03-15T14:56:33.009Z,1071.00
2023-03-15T15:00:33.002Z,1069.00
2023-03-15T15:04:33.029Z,1026.00
2023-03-15T15:08:33.008Z,983.00
2023-03-15T15:12:33.010Z,932.00
2023-03-15T15:16:32.986Z,893.00
2023-03-15T15:20:33.021Z,869.00
2023-03-15T15:24:33.520Z,869.00
2023-03-15T15:28:36.971Z,855.00
2023-03-15T15:32:33.764Z,842.00
2023-03-15T15:40:33.521Z,808.00
2023-03-15T15:44:33.169Z,821.00
2023-03-15T15:48:33.519Z,825.00
2023-03-15T15:52:33.556Z,824.00
2023-03-15T15:56:33.399Z,825.00
2023-03-15T16:00:33.527Z,823.00
2023-03-15T16:04:33.489Z,826.00
2023-03-15T16:08:34.057Z,818.00
2023-03-15T16:12:33.653Z,812.00
2023-03-15T16:16:33.750Z,812.00
2023-03-15T16:20:34.032Z,803.00
2023-03-15T16:24:36.332Z,806.00
2023-03-15T16:28:34.047Z,804.00
2023-03-15T16:32:43.869Z,800.00
2023-03-15T16:36:33.763Z,800.00
2023-03-15T16:40:34.068Z,800.00
2023-03-15T16:44:34.045Z,798.00
2023-03-15T16:48:33.665Z,797.00
2023-03-15T16:52:33.640Z,796.00
2023-03-15T16:56:33.663Z,790.00
2023-03-15T17:00:33.605Z,797.00
2023-03-15T17:04:33.616Z,789.00
2023-03-15T17:08:33.580Z,783.00
2023-03-15T17:12:33.578Z,785.00
2023-03-15T17:16:33.543Z,784.00
2023-03-15T17:20:33.487Z,778.00
2023-03-15T17:24:33.483Z,771.00
2023-03-15T17:28:33.516Z,770.00
2023-03-15T17:36:33.486Z,761.00
2023-03-15T17:40:33.524Z,759.00
2023-03-15T17:44:33.508Z,754.00
2023-03-15T17:48:33.477Z,749.00
2023-03-15T17:52:33.461Z,751.00
2023-03-15T17:56:33.483Z,745.00
2023-03-15T18:00:33.501Z,741.00
2023-03-15T18:04:33.463Z,745.00
2023-03-15T18:08:33.476Z,739.00
2023-03-15T18:12:33.493Z,738.00
2023-03-15T18:16:33.555Z,734.00
2023-03-15T18:20:33.511Z,729.00
2023-03-15T18:24:33.568Z,728.00
2023-03-15T18:28:33.579Z,728.00
2023-03-15T18:32:33.700Z,725.00
2023-03-15T18:36:33.683Z,725.00
2023-03-15T18:40:33.764Z,716.00
2023-03-15T18:44:33.770Z,712.00
2023-03-15T18:48:40.506Z,715.00
2023-03-15T18:52:33.800Z,716.00
2023-03-15T18:56:33.784Z,711.00
2023-03-15T19:00:33.807Z,711.00
2023-03-15T19:04:33.829Z,706.00
2023-03-15T19:08:33.810Z,698.00
2023-03-15T19:12:33.821Z,690.00
2023-03-15T19:16:33.868Z,691.00
2023-03-15T19:20:33.835Z,693.00
2023-03-15T19:24:33.824Z,691.00
2023-03-15T19:28:33.866Z,691.00
2023-03-15T19:32:33.969Z,690.00
2023-03-15T19:36:33.914Z,688.00
2023-03-15T19:40:33.904Z,683.00
2023-03-15T19:44:33.862Z,677.00
2023-03-15T19:48:33.870Z,671.00
2023-03-15T19:52:33.929Z,674.00
2023-03-15T19:56:33.932Z,675.00
2023-03-15T20:00:33.950Z,681.00
2023-03-15T20:04:33.998Z,678.00
2023-03-15T20:08:33.994Z,674.00
2023-03-15T20:12:34.002Z,677.00
2023-03-15T20:16:34.097Z,679.00
2023-03-15T20:20:34.016Z,672.00
2023-03-15T20:24:34.054Z,669.00
2023-03-15T20:28:34.038Z,674.00
2023-03-15T20:32:34.087Z,672.00
2023-03-15T20:36:34.072Z,669.00
2023-03-15T20:40:34.106Z,660.00
2023-03-15T20:44:34.084Z,661.00
2023-03-15T20:48:34.101Z,661.00
2023-03-15T20:52:34.135Z,660.00
2023-03-15T20:56:34.210Z,661.00
2023-03-15T21:00:34.244Z,656.00
2023-03-15T21:04:34.337Z,650.00
2023-03-15T21:08:34.345Z,649.00
2023-03-15T21:12:34.425Z,643.00
2023-03-15T21:16:34.498Z,646.00
2023-03-15T21:20:34.492Z,645.00
2023-03-15T21:24:36.628Z,643.00
2023-03-15T21:28:34.557Z,644.00
2023-03-15T21:32:34.562Z,647.00
2023-03-15T21:36:34.521Z,646.00
2023-03-15T21:40:34.546Z,650.00
2023-03-15T21:44:34.584Z,653.00
2023-03-15T21:48:34.550Z,648.00
2023-03-15T21:52:34.531Z,643.00
2023-03-15T21:56:34.527Z,641.00
2023-03-15T22:00:34.578Z,642.00
2023-03-15T22:04:34.643Z,639.00
2023-03-15T22:08:34.572Z,637.00
2023-03-15T22:12:34.585Z,631.00
2023-03-15T22:16:34.664Z,633.00
2023-03-15T22:20:34.585Z,632.00
2023-03-15T22:24:34.584Z,628.00
2023-03-15T22:28:34.573Z,626.00
2023-03-15T22:32:34.602Z,624.00
2023-03-15T22:36:34.575Z,620.00
2023-03-15T22:40:34.538Z,626.00
2023-03-15T22:44:34.528Z,626.00
2023-03-15T22:48:34.538Z,622.00
2023-03-15T22:52:34.524Z,619.00
2023-03-15T22:56:34.528Z,619.00
2023-03-15T23:00:34.565Z,623.00
2023-03-15T23:04:34.832Z,623.00
2023-03-15T23:08:34.541Z,617.00
2023-03-15T23:12:36.460Z,615.00
2023-03-15T23:16:34.572Z,618.00
2023-03-15T23:20:34.592Z,614.00
2023-03-15T23:24:34.592Z,614.00
2023-03-15T23:28:34.553Z,606.00
2023-03-15T23:32:34.547Z,608.00
2023-03-15T23:36:34.555Z,606.00
2023-03-15T23:40:34.536Z,602.00
2023-03-15T23:44:34.555Z,604.00
2023-03-15T23:48:34.569Z,603.00
2023-03-15T23:52:34.746Z,606.00
2023-03-15T23:56:34.579Z,606.00
